Time;durP1;ratioP1;P1;durP2;ratioP2;P2;SDS_P1;SDS_P2;PMS_P1;PMS_P2;Temp;Humidity;BMP_temperature;BMP_pressure;BME280_temperature;BME280_humidity;BME280_pressure;Samples;Min_cycle;Max_cycle;Signal;HPM_P1;HPM_P2
2021/05/24 07:43:21;;;;;;;4.95;2.92;;;15.30;99.90;;;;;;6341297;27;20357;-79
2021/05/24 09:21:56;;;;;;;3.35;2.20;;;18.30;99.90;;;;;;6242297;28;20061;-80
2021/05/24 09:24:57;;;;;;;3.08;2.30;;;18.30;90.60;;;;;;6193123;28;20030;-81
2021/05/24 09:27:57;;;;;;;2.92;2.17;;;18.40;99.90;;;;;;6223500;28;20068;-81
2021/05/24 09:31:02;;;;;;;2.95;2.40;;;18.30;99.90;;;;;;6192699;28;20033;-81
2021/05/24 09:34:06;;;;;;;3.42;2.60;;;18.20;99.40;;;;;;6218495;28;20042;-81
2021/05/24 09:37:06;;;;;;;4.00;2.80;;;18.50;99.30;;;;;;6195210;28;20037;-81
2021/05/24 09:40:22;;;;;;;2.50;2.22;;;18.50;90.10;;;;;;6193780;28;20038;-79
2021/05/24 09:43:30;;;;;;;4.20;2.65;;;18.50;80.80;;;;;;6184566;28;20042;-81
2021/05/24 09:46:31;;;;;;;4.88;2.70;;;;;;;;;;6200319;28;20567;-81
2021/05/24 09:49:32;;;;;;;2.85;2.00;;;;;;;;;;6288080;28;20034;-80
2021/05/24 09:52:40;;;;;;;2.80;2.30;;;18.00;98.00;;;;;;6293532;28;20056;-78
2021/05/24 09:55:40;;;;;;;5.80;2.65;;;17.90;98.20;;;;;;6260519;28;20036;-79
2021/05/24 09:58:41;;;;;;;3.38;2.47;;;;;;;;;;6312028;28;20089;-78
2021/05/24 10:01:52;;;;;;;3.72;2.45;;;18.20;92.90;;;;;;6276848;28;20147;-76
2021/05/24 10:04:52;;;;;;;4.72;2.50;;;18.10;88.10;;;;;;6293460;28;20189;-79
2021/05/24 10:07:53;;;;;;;6.03;2.53;;;;;;;;;;6300531;28;20056;-77
2021/05/24 10:10:54;;;;;;;18.27;3.83;;;18.20;85.60;;;;;;6319051;28;20500;-78
2021/05/24 10:13:54;;;;;;;9.20;3.63;;;18.30;90.20;;;;;;6288024;28;20036;-78
2021/05/24 10:17:00;;;;;;;5.70;2.55;;;18.20;89.70;;;;;;6279708;28;20035;-78
2021/05/24 10:20:00;;;;;;;4.30;2.65;;;18.20;87.70;;;;;;6291549;28;20028;-81
2021/05/24 10:23:01;;;;;;;3.50;2.50;;;18.30;88.90;;;;;;6278877;28;20043;-82
2021/05/24 10:26:03;;;;;;;3.22;2.00;;;18.30;88.00;;;;;;6251614;28;20035;-79
2021/05/24 10:29:04;;;;;;;2.28;1.95;;;18.30;86.60;;;;;;6268828;28;20017;-80
2021/05/24 10:32:08;;;;;;;4.40;2.47;;;18.80;95.00;;;;;;6262825;28;20591;-85
2021/05/24 10:35:31;;;;;;;2.05;1.90;;;19.90;83.40;;;;;;6269777;28;20021;-82
2021/05/24 10:38:33;;;;;;;4.15;2.33;;;19.70;82.10;;;;;;6286880;28;20056;-82
2021/05/24 10:41:41;;;;;;;2.92;2.30;;;20.70;80.20;;;;;;6266893;28;20032;-83
2021/05/24 10:44:44;;;;;;;3.58;2.60;;;21.70;76.80;;;;;;6262534;28;20029;-82
2021/05/24 10:47:52;;;;;;;4.25;2.58;;;22.40;73.10;;;;;;6261115;28;20098;-81
2021/05/24 10:51:10;;;;;;;7.93;3.85;;;22.90;71.60;;;;;;6276072;28;20432;-79
2021/05/24 11:09:16;;;;;;;2.20;1.83;;;;;;;;;;6337331;28;20039;-79
2021/05/24 11:12:30;;;;;;;4.95;1.83;;;22.90;65.50;;;;;;6305879;28;20473;-80
2021/05/24 11:15:32;;;;;;;2.15;1.95;;;22.30;80.60;;;;;;6296274;28;20110;-79
2021/05/24 11:18:32;;;;;;;;;;;22.40;63.60;;;;;;6287281;28;21224;-79
2021/05/24 11:21:33;;;;;;;2.97;2.38;;;22.00;55.10;;;;;;6303898;28;19924;-77
2021/05/24 12:18:29;;;;;;;2.78;2.08;;;22.20;73.20;;;;;;6191132;28;20051;-81
2021/05/24 12:21:33;;;;;;;2.13;1.90;;;21.90;81.10;;;;;;6177484;28;20483;-80
2021/05/24 12:24:37;;;;;;;1.85;1.45;;;21.00;60.70;;;;;;6212833;28;20033;-80
2021/05/24 12:27:38;;;;;;;3.38;1.70;;;;;;;;;;6184945;28;20026;-82
2021/05/24 12:30:43;;;;;;;1.60;1.17;;;;;;;;;;6208868;28;20026;-81
2021/05/24 12:33:44;;;;;;;3.38;1.83;;;;;;;;;;6181430;28;20993;-83
2021/05/24 12:37:03;;;;;;;1.83;1.65;;;;;;;;;;6165310;28;20037;-82
2021/05/24 12:40:08;;;;;;;1.48;1.38;;;20.00;74.10;;;;;;6143567;28;20037;-81
2021/05/24 12:43:09;;;;;;;2.08;1.88;;;;;;;;;;6141184;28;20059;-80
2021/05/24 12:46:10;;;;;;;4.55;1.70;;;;;;;;;;6157308;28;20065;-81
2021/05/24 12:49:11;;;;;;;3.20;1.58;;;;;;;;;;6169423;28;20029;-81
2021/05/24 12:52:12;;;;;;;1.80;1.60;;;19.50;66.00;;;;;;6176965;28;20050;-81
2021/05/24 12:55:18;;;;;;;2.40;1.45;;;19.50;55.00;;;;;;6160634;28;20022;-84
2021/05/24 12:58:19;;;;;;;1.98;1.75;;;19.60;54.20;;;;;;6156988;28;20027;-78
2021/05/24 13:01:32;;;;;;;2.70;1.48;;;19.40;56.60;;;;;;6161517;28;20034;-82
2021/05/24 13:04:34;;;;;;;2.50;1.60;;;19.50;53.50;;;;;;6156666;28;20041;-79
2021/05/24 13:07:55;;;;;;;1.60;1.50;;;19.70;56.40;;;;;;6163856;28;20034;-80
2021/05/24 13:11:00;;;;;;;2.78;2.05;;;19.20;54.30;;;;;;6182136;28;20030;-80
2021/05/24 13:14:05;;;;;;;4.05;2.30;;;19.90;55.40;;;;;;6164047;28;20561;-82
2021/05/24 13:30:08;;;;;;;1.70;1.60;;;19.90;53.50;;;;;;6176915;28;20041;-79
2021/05/24 13:33:28;;;;;;;2.60;1.90;;;19.90;53.50;;;;;;6163844;28;20026;-78
2021/05/24 13:36:34;;;;;;;2.00;1.75;;;19.80;55.30;;;;;;6196621;28;20034;-81
2021/05/24 13:39:35;;;;;;;1.60;1.50;;;19.80;56.00;;;;;;6155848;28;20090;-81
2021/05/24 13:42:35;;;;;;;3.03;1.67;;;20.10;54.50;;;;;;6167539;28;20104;-79
2021/05/24 13:45:36;;;;;;;3.08;2.03;;;19.90;54.30;;;;;;6179581;28;20082;-78
2021/05/24 13:48:37;;;;;;;1.73;1.63;;;19.80;55.00;;;;;;6155133;28;20793;-79
2021/05/24 13:51:40;;;;;;;2.05;1.77;;;19.80;55.50;;;;;;6155467;28;20034;-77
2021/05/24 13:54:43;;;;;;;4.82;1.77;;;19.90;55.80;;;;;;6156072;28;20510;-81
2021/05/24 13:57:44;;;;;;;2.30;2.10;;;20.10;58.30;;;;;;6155532;28;20114;-78
2021/05/24 14:00:44;;;;;;;2.00;1.83;;;20.10;55.60;;;;;;6139260;28;20540;-77
2021/05/24 14:03:45;;;;;;;6.07;2.40;;;;;;;;;;6172850;28;20042;-80
2021/05/24 14:06:47;;;;;;;2.60;2.40;;;19.40;74.40;;;;;;6154784;28;20027;-82
2021/05/24 14:09:47;;;;;;;2.10;1.90;;;19.40;58.40;;;;;;6139256;28;20581;-78
2021/05/24 14:12:48;;;;;;;3.28;2.47;;;19.30;57.50;;;;;;6172724;28;20107;-79
2021/05/24 14:15:49;;;;;;;4.03;2.38;;;19.20;60.40;;;;;;6184353;28;20592;-79
2021/05/24 14:18:50;;;;;;;2.15;2.00;;;19.10;62.40;;;;;;6195513;28;20033;-80
2021/05/24 14:21:51;;;;;;;2.83;2.10;;;18.70;59.80;;;;;;6154704;28;20142;-79
2021/05/24 14:24:51;;;;;;;2.60;1.90;;;18.40;58.80;;;;;;6154334;28;20362;-80
2021/05/24 14:27:53;;;;;;;2.42;2.00;;;18.30;59.60;;;;;;6154409;28;20035;-80
2021/05/24 14:30:56;;;;;;;3.08;2.05;;;18.20;61.10;;;;;;6155061;28;20117;-78
2021/05/24 14:33:57;;;;;;;2.85;2.28;;;18.10;60.20;;;;;;6155044;28;20023;-78
2021/05/24 14:36:57;;;;;;;3.92;2.05;;;17.80;77.00;;;;;;6137966;28;20031;-81
2021/05/24 14:39:58;;;;;;;2.35;2.00;;;18.00;61.50;;;;;;6170703;28;20031;-80
2021/05/24 14:42:59;;;;;;;6.07;2.53;;;18.00;58.60;;;;;;6153746;28;20042;-75
2021/05/24 14:46:02;;;;;;;7.22;2.45;;;18.00;62.10;;;;;;6171761;28;20065;-79
2021/05/24 14:49:03;;;;;;;5.10;2.30;;;18.10;60.90;;;;;;6176013;28;20035;-79
2021/05/24 14:52:06;;;;;;;3.13;1.80;;;18.00;59.00;;;;;;6194420;28;20038;-77
2021/05/24 14:55:07;;;;;;;1.92;1.83;;;17.90;59.30;;;;;;6162006;28;20425;-77
2021/05/24 14:58:07;;;;;;;3.15;1.92;;;18.10;59.80;;;;;;6155153;28;20026;-78
2021/05/24 15:01:08;;;;;;;4.13;2.10;;;18.20;61.40;;;;;;6176973;28;20439;-78
2021/05/24 15:04:08;;;;;;;5.55;2.20;;;18.20;59.60;;;;;;6145462;28;20037;-81
2021/05/24 15:07:09;;;;;;;2.80;2.03;;;18.40;61.40;;;;;;6153558;28;20031;-82
2021/05/24 15:10:10;;;;;;;2.65;1.90;;;18.10;59.00;;;;;;6154065;28;20058;-79
2021/05/24 15:13:11;;;;;;;3.13;2.17;;;18.10;58.10;;;;;;6153778;28;20027;-77
2021/05/24 15:16:12;;;;;;;3.33;1.85;;;17.90;58.40;;;;;;6188834;28;20066;-78
2021/05/24 15:19:12;;;;;;;1.75;1.60;;;17.90;60.00;;;;;;6176936;28;20084;-76
2021/05/24 15:22:13;;;;;;;3.05;1.90;;;18.00;61.40;;;;;;6193790;28;20120;-79
2021/05/24 15:25:14;;;;;;;2.13;1.80;;;18.00;59.60;;;;;;6176921;28;20034;-80
2021/05/24 15:28:16;;;;;;;2.33;1.90;;;17.90;59.20;;;;;;6171226;28;21045;-77
2021/05/24 15:31:16;;;;;;;;;;;17.80;60.50;;;;;;6153933;28;20042;-79
2021/05/24 15:34:17;;;;;;;3.58;2.10;;;17.60;61.20;;;;;;6169183;28;19910;-80
2021/05/24 15:37:18;;;;;;;5.72;2.10;;;17.50;63.00;;;;;;6153360;28;20034;-81
2021/05/24 15:40:19;;;;;;;3.33;2.00;;;17.40;65.20;;;;;;6174719;28;20030;-80
2021/05/24 15:43:20;;;;;;;3.42;2.20;;;17.40;67.40;;;;;;6176419;28;20108;-79
2021/05/24 15:46:21;;;;;;;5.43;2.30;;;17.30;70.70;;;;;;6176999;28;20038;-77
2021/05/24 15:49:22;;;;;;;3.83;2.13;;;17.10;71.90;;;;;;6157038;28;20039;-78
2021/05/24 15:52:23;;;;;;;3.15;2.05;;;17.20;72.90;;;;;;6160181;28;20033;-79
2021/05/24 15:55:23;;;;;;;4.78;2.30;;;16.80;72.30;;;;;;6179375;28;20532;-80
2021/05/24 15:58:27;;;;;;;2.90;2.17;;;16.70;72.70;;;;;;6171510;28;20046;-80
2021/05/24 16:01:28;;;;;;;4.07;3.15;;;16.50;73.50;;;;;;6153044;28;20038;-79
2021/05/24 16:04:28;;;;;;;4.18;2.75;;;16.50;92.80;;;;;;6157354;28;20715;-78
2021/05/24 16:07:29;;;;;;;6.53;2.60;;;16.20;79.60;;;;;;6162361;28;20077;-76
2021/05/24 16:10:29;;;;;;;2.83;2.30;;;16.10;82.10;;;;;;6175650;28;20109;-78
2021/05/24 16:13:30;;;;;;;7.50;4.18;;;15.90;82.30;;;;;;6157903;28;20027;-79
2021/05/24 16:16:31;;;;;;;18.33;12.70;;;15.70;83.70;;;;;;6140940;28;20413;-80
2021/05/24 16:19:31;;;;;;;10.15;6.25;;;15.70;84.70;;;;;;6160071;28;20027;-75
2021/05/24 16:22:32;;;;;;;4.90;3.40;;;15.50;84.70;;;;;;6174224;28;20473;-79
2021/05/24 16:28:41;;;;;;;8.30;4.78;;;15.70;99.70;;;;;;6174441;28;20469;-79
2021/05/24 16:31:41;;;;;;;3.97;3.10;;;15.70;99.90;;;;;;6159005;28;20027;-79
2021/05/24 16:34:42;;;;;;;7.40;2.60;;;15.70;99.90;;;;;;6160407;28;20058;-78
2021/05/24 16:37:43;;;;;;;4.32;3.30;;;15.50;99.90;;;;;;6157554;28;20019;-78
2021/05/24 16:40:45;;;;;;;2.72;2.30;;;15.50;96.80;;;;;;6160541;28;20034;-78
2021/05/24 16:43:46;;;;;;;5.85;2.50;;;15.50;99.90;;;;;;6174252;28;20039;-78
2021/05/24 16:46:47;;;;;;;4.47;2.30;;;;;;;;;;6160084;28;20477;-77
2021/05/24 16:49:48;;;;;;;4.80;2.15;;;;;;;;;;6172635;28;20063;-75
2021/05/24 16:52:48;;;;;;;6.22;2.60;;;15.80;99.90;;;;;;6157361;28;20023;-78
2021/05/24 16:55:49;;;;;;;4.82;2.30;;;15.30;99.90;;;;;;6159697;28;20038;-78
2021/05/24 16:58:50;;;;;;;3.03;2.00;;;;;;;;;;6173724;28;20030;-78
2021/05/24 17:01:51;;;;;;;4.03;2.30;;;15.00;99.90;;;;;;6157177;28;20026;-78
2021/05/24 17:04:52;;;;;;;6.13;2.40;;;;;;;;;;6173176;28;20061;-79
2021/05/24 17:07:52;;;;;;;4.03;2.40;;;15.00;93.90;;;;;;6197298;28;20536;-79
2021/05/24 17:10:53;;;;;;;3.60;2.38;;;15.20;88.60;;;;;;6163426;28;20118;-78
2021/05/24 17:13:55;;;;;;;3.45;2.00;;;15.10;87.40;;;;;;6179624;28;20076;-80
2021/05/24 17:16:56;;;;;;;;;;;15.20;88.70;;;;;;6167680;28;20065;-79
2021/05/24 17:19:57;;;;;;;3.55;2.72;;;15.20;88.30;;;;;;6193019;28;19910;-76
2021/05/24 17:22:58;;;;;;;3.35;2.25;;;15.20;88.50;;;;;;6177775;28;20045;-79
2021/05/24 17:25:59;;;;;;;2.95;2.40;;;;;;;;;;6156499;28;20058;-82
2021/05/24 17:28:59;;;;;;;2.33;2.13;;;15.20;84.50;;;;;;6173557;28;20554;-79
2021/05/24 17:32:00;;;;;;;4.07;2.22;;;15.30;87.40;;;;;;6188579;28;20027;-79
2021/05/24 17:35:01;;;;;;;5.65;3.17;;;15.20;89.50;;;;;;6191393;28;20444;-79
2021/05/24 17:38:02;;;;;;;3.83;2.50;;;15.20;90.00;;;;;;6211265;28;20034;-79
2021/05/24 17:41:03;;;;;;;6.65;2.63;;;15.20;90.10;;;;;;6156059;28;20037;-80
2021/05/24 17:44:04;;;;;;;3.25;2.60;;;15.10;90.30;;;;;;6156650;28;20525;-75
2021/05/24 17:47:05;;;;;;;3.10;2.70;;;15.00;99.30;;;;;;6188534;28;20042;-78
2021/05/24 17:53:43;;;;;;;5.30;2.95;;;14.70;99.90;;;;;;6099135;28;20024;-81
2021/05/24 17:56:44;;;;;;;5.53;2.65;;;14.80;93.30;;;;;;6172229;28;20109;-78
2021/05/24 17:59:45;;;;;;;5.72;2.97;;;;;;;;;;6173078;28;20260;-81
2021/05/24 18:02:46;;;;;;;4.30;2.58;;;14.60;91.80;;;;;;6173926;28;20058;-80
2021/05/24 18:05:48;;;;;;;5.03;2.63;;;14.60;94.40;;;;;;6165205;28;20481;-79
2021/05/24 18:08:50;;;;;;;4.38;2.58;;;14.50;92.60;;;;;;6151666;28;20546;-79
2021/05/24 18:11:50;;;;;;;2.70;2.22;;;14.50;93.00;;;;;;6170946;28;20101;-80
2021/05/24 18:14:51;;;;;;;3.35;2.70;;;14.40;91.60;;;;;;6154166;28;20066;-80
2021/05/24 18:17:56;;;;;;;8.25;5.28;;;14.50;99.90;;;;;;6154559;28;20489;-79
2021/05/24 18:20:57;;;;;;;5.00;2.30;;;14.40;92.60;;;;;;6171879;28;20117;-82
2021/05/24 18:23:57;;;;;;;2.80;2.47;;;14.50;92.00;;;;;;6155272;28;20034;-80
2021/05/24 18:26:59;;;;;;;4.63;2.50;;;14.30;94.80;;;;;;6171595;28;20023;-79
2021/05/24 18:30:00;;;;;;;6.88;3.25;;;14.60;94.10;;;;;;6170909;28;20030;-80
2021/05/24 18:33:02;;;;;;;5.45;3.50;;;14.60;99.90;;;;;;6170576;28;20035;-79
2021/05/24 18:36:03;;;;;;;4.30;2.70;;;14.70;93.60;;;;;;6170258;28;20033;-80
2021/05/24 18:39:07;;;;;;;2.95;2.00;;;14.70;92.70;;;;;;6172219;28;20089;-82
2021/05/24 18:42:07;;;;;;;3.28;2.13;;;14.70;90.50;;;;;;6171765;28;20039;-78
2021/05/24 18:45:08;;;;;;;4.85;2.58;;;14.60;92.60;;;;;;6155259;28;20381;-80
2021/05/24 18:48:10;;;;;;;3.72;2.10;;;14.60;99.90;;;;;;6170139;28;20474;-82
2021/05/24 18:51:10;;;;;;;4.22;2.60;;;14.70;93.80;;;;;;6183884;28;20034;-82
2021/05/24 18:54:11;;;;;;;5.00;2.25;;;14.70;93.80;;;;;;6185712;28;20038;-82
2021/05/24 18:57:12;;;;;;;2.65;2.10;;;14.50;92.50;;;;;;6154326;28;20382;-82
2021/05/24 19:00:19;;;;;;;3.20;2.30;;;14.30;99.90;;;;;;6169654;28;20469;-81
2021/05/24 19:06:24;;;;;;;7.55;2.50;;;;;;;;;;6168334;28;20034;-83
2021/05/24 19:09:25;;;;;;;2.92;2.20;;;14.30;91.10;;;;;;6169698;28;20031;-82
2021/05/24 19:12:26;;;;;;;4.50;2.50;;;;;;;;;;6169487;28;20031;-83
2021/05/24 19:15:27;;;;;;;4.43;2.47;;;;;;;;;;6172778;28;20045;-84
2021/05/24 19:18:28;;;;;;;3.00;2.25;;;14.20;91.50;;;;;;6169507;28;20061;-83
2021/05/24 19:21:29;;;;;;;4.60;2.22;;;;;;;;;;6152729;28;20038;-82
2021/05/24 19:24:29;;;;;;;2.10;1.90;;;14.10;90.50;;;;;;6169689;28;20022;-84
2021/05/24 19:27:30;;;;;;;2.70;2.40;;;;;;;;;;6169475;28;20031;-83
2021/05/24 19:30:31;;;;;;;3.08;2.10;;;14.10;99.20;;;;;;6168708;28;20067;-83
2021/05/24 19:33:32;;;;;;;2.30;1.85;;;13.90;96.50;;;;;;6153256;28;20034;-81
2021/05/24 19:36:35;;;;;;;9.65;2.80;;;14.10;93.10;;;;;;6169297;28;20102;-81
2021/05/24 19:39:35;;;;;;;4.80;2.00;;;13.10;95.00;;;;;;6185451;28;20038;-82
2021/05/24 19:42:36;;;;;;;3.30;1.85;;;10.60;99.90;;;;;;6169093;28;20584;-84
2021/05/24 19:45:42;;;;;;;1.98;1.55;;;10.00;99.90;;;;;;6160335;28;20073;-85
2021/05/24 20:25:08;;;;;;;1.50;1.40;;;10.20;99.90;;;;;;6155048;28;20027;-83
2021/05/24 20:28:09;;;;;;;2.10;1.73;;;10.30;99.90;;;;;;6159532;28;20035;-82
2021/05/24 20:31:10;;;;;;;3.92;1.90;;;;;;;;;;6152566;28;20452;-84
2021/05/24 20:34:10;;;;;;;2.90;1.80;;;10.00;99.90;;;;;;6173363;28;20035;-82
2021/05/24 20:37:11;;;;;;;1.75;1.50;;;;;;;;;;6152461;28;20054;-82
2021/05/24 20:40:13;;;;;;;2.10;1.80;;;10.10;99.90;;;;;;6168682;28;20027;-82
2021/05/24 20:43:14;;;;;;;3.55;1.73;;;;;;;;;;6168471;28;20437;-82
2021/05/24 20:46:16;;;;;;;3.22;1.63;;;10.10;99.90;;;;;;6168300;28;20038;-82
2021/05/24 20:49:17;;;;;;;2.65;1.83;;;;;;;;;;6154090;28;20039;-82
2021/05/24 20:52:18;;;;;;;3.75;2.13;;;9.90;99.90;;;;;;6173483;28;20563;-84
2021/05/24 20:55:20;;;;;;;2.10;1.60;;;9.90;99.90;;;;;;6173127;28;20512;-84
2021/05/24 20:58:23;;;;;;;2.47;1.90;;;;;;;;;;6173621;28;20031;-83
2021/05/24 21:01:23;;;;;;;3.50;1.73;;;10.10;99.90;;;;;;6186573;28;20034;-82
2021/05/24 21:04:24;;;;;;;2.65;1.90;;;;;;;;;;6171991;28;20035;-81
2021/05/24 21:07:25;;;;;;;4.45;2.05;;;10.10;99.90;;;;;;6173996;28;20054;-82
2021/05/24 21:10:27;;;;;;;3.90;2.13;;;;;;;;;;6174195;28;20026;-84
2021/05/24 21:13:27;;;;;;;1.73;1.53;;;10.00;99.90;;;;;;6171895;28;20363;-83
2021/05/24 21:16:28;;;;;;;1.80;1.70;;;;;;;;;;6164318;28;20059;-86
2021/05/24 21:19:29;;;;;;;2.25;1.55;;;10.10;99.90;;;;;;6176231;28;20386;-84
2021/05/24 21:22:29;;;;;;;3.47;1.58;;;10.30;99.90;;;;;;6172821;28;20073;-82
2021/05/24 21:25:30;;;;;;;2.72;1.52;;;;;;;;;;6173830;28;20023;-85
2021/05/24 21:28:31;;;;;;;4.30;2.17;;;9.60;99.90;;;;;;6172082;28;20082;-83
2021/05/24 21:31:42;;;;;;;5.55;2.08;;;9.50;99.90;;;;;;6156616;28;20026;-85
2021/05/24 21:38:06;;;;;;;3.63;1.85;;;9.50;99.90;;;;;;6167095;28;20053;-84
2021/05/24 21:41:07;;;;;;;4.20;1.88;;;9.80;99.90;;;;;;6159457;28;20037;-84
2021/05/24 21:44:08;;;;;;;3.22;1.85;;;;;;;;;;6156640;28;20034;-84
2021/05/24 21:47:09;;;;;;;6.18;2.40;;;9.40;99.90;;;;;;6171290;28;20473;-83
2021/05/24 21:50:10;;;;;;;4.97;2.10;;;9.70;99.90;;;;;;6172135;28;20037;-86
2021/05/24 21:53:10;;;;;;;2.58;1.65;;;9.80;99.90;;;;;;6156246;28;20038;-85
2021/05/24 21:56:11;;;;;;;3.70;1.80;;;9.50;99.90;;;;;;6155624;28;20041;-83
2021/05/24 21:59:12;;;;;;;5.15;1.88;;;;;;;;;;6155894;28;20548;-83
2021/05/24 22:02:13;;;;;;;4.88;1.95;;;;;;;;;;6171354;28;20042;-86
2021/05/24 22:05:14;;;;;;;4.55;1.80;;;9.70;99.90;;;;;;6174258;28;20105;-84
2021/05/24 22:08:15;;;;;;;4.82;1.80;;;9.50;99.90;;;;;;6163194;28;20031;-84
2021/05/24 22:11:16;;;;;;;3.22;2.05;;;9.40;99.90;;;;;;6155359;28;20042;-83
2021/05/24 22:14:17;;;;;;;5.00;2.05;;;;;;;;;;6154577;28;20114;-82
2021/05/24 22:17:18;;;;;;;4.32;2.10;;;;;;;;;;6170473;28;20121;-84
2021/05/24 22:20:20;;;;;;;4.53;1.92;;;9.90;99.90;;;;;;6171243;28;20031;-83
2021/05/24 22:23:22;;;;;;;2.67;2.00;;;;;;;;;;6155067;28;20039;-85
2021/05/24 22:26:23;;;;;;;4.90;2.00;;;;;;;;;;6189164;28;20026;-85
2021/05/24 22:29:23;;;;;;;5.22;2.20;;;9.60;98.00;;;;;;6171149;28;20030;-83
2021/05/24 22:32:25;;;;;;;5.88;2.30;;;;;;;;;;6170558;28;20455;-85
2021/05/24 22:35:26;;;;;;;4.43;2.05;;;9.40;99.90;;;;;;6170487;28;20113;-83
2021/05/24 22:38:26;;;;;;;4.50;2.25;;;9.40;99.90;;;;;;6170773;28;20035;-85
2021/05/24 22:41:27;;;;;;;4.95;2.60;;;9.40;99.90;;;;;;6154156;28;20041;-85
2021/05/24 22:44:28;;;;;;;4.38;2.35;;;;;;;;;;6154440;28;20054;-85
2021/05/24 22:47:29;;;;;;;8.00;2.00;;;9.50;98.80;;;;;;6170225;28;20027;-85
2021/05/24 22:50:30;;;;;;;5.68;2.13;;;;;;;;;;6153974;28;20046;-83
2021/05/24 22:53:30;;;;;;;2.70;1.80;;;9.60;99.90;;;;;;6170618;28;20369;-84
2021/05/24 22:56:31;;;;;;;2.53;1.90;;;;;;;;;;6154060;28;20035;-84
2021/05/24 22:59:32;;;;;;;9.82;2.47;;;9.70;98.30;;;;;;6170127;28;20520;-83
2021/05/24 23:02:32;;;;;;;3.17;1.98;;;9.50;99.90;;;;;;6169785;28;20042;-84
2021/05/24 23:05:35;;;;;;;3.38;1.73;;;9.80;99.90;;;;;;6170087;28;20425;-82
2021/05/24 23:08:36;;;;;;;3.10;1.77;;;9.50;99.90;;;;;;6161495;28;20177;-84
2021/05/24 23:11:37;;;;;;;5.65;2.13;;;;;;;;;;6175537;28;20468;-84
2021/05/24 23:14:38;;;;;;;3.65;1.70;;;;;;;;;;6170725;28;20545;-83
2021/05/24 23:17:40;;;;;;;5.03;1.95;;;;;;;;;;6176816;28;20062;-84
2021/05/24 23:20:41;;;;;;;;;;;9.10;99.90;;;;;;6179577;28;20134;-84
2021/05/24 23:23:42;;;;;;;2.63;1.98;;;;;;;;;;6169108;28;19918;-85
2021/05/24 23:26:43;;;;;;;3.00;1.38;;;9.20;99.90;;;;;;6169832;28;20794;-84
2021/05/24 23:29:44;;;;;;;1.75;1.42;;;;;;;;;;6177190;28;20102;-86
2021/05/24 23:32:45;;;;;;;6.63;1.75;;;;;;;;;;6159092;28;20027;-85
2021/05/24 23:35:46;;;;;;;2.80;1.70;;;;;;;;;;6171277;28;20178;-85
2021/05/24 23:38:46;;;;;;;1.80;1.20;;;8.80;99.90;;;;;;6169330;28;20031;-85
2021/05/24 23:41:47;;;;;;;1.98;1.70;;;;;;;;;;6154186;28;20046;-85
2021/05/24 23:44:48;;;;;;;4.88;1.55;;;;;;;;;;6179928;28;20038;-85
2021/05/24 23:47:49;;;;;;;2.20;1.50;;;;;;;;;;6169362;28;20125;-85
2021/05/24 23:50:50;;;;;;;4.78;2.08;;;8.50;99.90;;;;;;6169231;28;20023;-84
2021/05/24 23:53:50;;;;;;;2.58;1.75;;;8.40;99.90;;;;;;6157079;28;20041;-84
2021/05/24 23:56:51;;;;;;;4.03;1.75;;;;;;;;;;6173242;28;20473;-85
2021/05/24 23:59:52;;;;;;;6.15;1.73;;;8.50;99.90;;;;;;6168938;28;20018;-84
